Princeville, Illinois
Current Conditions -  °F | °C
As of 6:54 PM on Tuesday 21 Oct 2014 (Local Time) from KPIA Reporting Station
Clear Clear  
Wind Chill: 51°   Ceiling: Unl
Heat Index: 51°   Visibility: 10mi
Dew Point: 38°   Wind: 5mph
Humidity: 61%   Direction: 70°ENE
Pressure: 30.19"   Gusts: NA
Location:  40.93°N, 89.76°W
Report Text: KPIA 212354Z 07004KT 10SM CLR 11/03 A3019 RMK AO2 SLP227 T01060033 10161 20106 53011
Loading
Personal Weather Stations






























Interactive Weather Map
Tropical Storm Tracking
New forecast layout! Learn more

10-Day Weather Forecast

Advertisements
Track Severe Weather on mobile